sensor_id;sensor_type;location;lat;lon;timestamp;P1;durP1;ratioP1;P2;durP2;ratioP2
25155;SDS011;21913;52.456;13.634;2022-11-15T00:00:04;4.35;;;3.38;;
25155;SDS011;21913;52.456;13.634;2022-11-15T00:10:54;4.28;;;3.08;;
25155;SDS011;21913;52.456;13.634;2022-11-15T00:16:15;3.83;;;3.22;;
25155;SDS011;21913;52.456;13.634;2022-11-15T00:21:36;4.38;;;2.95;;
25155;SDS011;21913;52.456;13.634;2022-11-15T00:26:57;5.43;;;3.35;;
25155;SDS011;21913;52.456;13.634;2022-11-15T00:32:17;4.57;;;3.47;;
25155;SDS011;21913;52.456;13.634;2022-11-15T00:37:37;5.68;;;3.38;;
25155;SDS011;21913;52.456;13.634;2022-11-15T00:42:57;4.40;;;3.10;;
25155;SDS011;21913;52.456;13.634;2022-11-15T00:48:18;4.05;;;3.05;;
25155;SDS011;21913;52.456;13.634;2022-11-15T00:53:38;4.10;;;3.25;;
25155;SDS011;21913;52.456;13.634;2022-11-15T00:58:58;4.43;;;3.20;;
25155;SDS011;21913;52.456;13.634;2022-11-15T01:04:18;4.68;;;3.25;;
25155;SDS011;21913;52.456;13.634;2022-11-15T01:09:39;4.90;;;3.20;;
25155;SDS011;21913;52.456;13.634;2022-11-15T01:14:59;3.83;;;2.97;;
25155;SDS011;21913;52.456;13.634;2022-11-15T01:20:18;6.60;;;3.15;;
25155;SDS011;21913;52.456;13.634;2022-11-15T01:25:38;4.75;;;3.38;;
25155;SDS011;21913;52.456;13.634;2022-11-15T01:31:03;4.70;;;3.20;;
25155;SDS011;21913;52.456;13.634;2022-11-15T01:36:26;5.10;;;3.10;;
25155;SDS011;21913;52.456;13.634;2022-11-15T01:41:46;4.25;;;3.10;;
25155;SDS011;21913;52.456;13.634;2022-11-15T01:47:11;4.50;;;3.28;;
25155;SDS011;21913;52.456;13.634;2022-11-15T01:52:35;4.28;;;3.03;;
25155;SDS011;21913;52.456;13.634;2022-11-15T01:57:58;5.13;;;2.92;;
25155;SDS011;21913;52.456;13.634;2022-11-15T02:03:21;4.45;;;3.08;;
25155;SDS011;21913;52.456;13.634;2022-11-15T02:08:51;3.53;;;2.88;;
25155;SDS011;21913;52.456;13.634;2022-11-15T02:36:01;4.13;;;2.95;;
25155;SDS011;21913;52.456;13.634;2022-11-15T02:41:36;4.13;;;2.70;;
25155;SDS011;21913;52.456;13.634;2022-11-15T02:47:04;4.38;;;3.08;;
25155;SDS011;21913;52.456;13.634;2022-11-15T02:52:31;3.35;;;2.60;;
25155;SDS011;21913;52.456;13.634;2022-11-15T02:57:52;3.88;;;2.72;;
25155;SDS011;21913;52.456;13.634;2022-11-15T03:09:28;3.85;;;2.75;;
25155;SDS011;21913;52.456;13.634;2022-11-15T03:15:14;3.63;;;2.83;;
25155;SDS011;21913;52.456;13.634;2022-11-15T03:20:41;3.83;;;2.72;;
25155;SDS011;21913;52.456;13.634;2022-11-15T03:26:03;3.20;;;2.60;;
25155;SDS011;21913;52.456;13.634;2022-11-15T03:31:27;4.75;;;2.90;;
25155;SDS011;21913;52.456;13.634;2022-11-15T03:36:51;4.03;;;2.70;;
25155;SDS011;21913;52.456;13.634;2022-11-15T03:47:41;3.78;;;2.78;;
25155;SDS011;21913;52.456;13.634;2022-11-15T03:53:09;3.92;;;2.78;;
25155;SDS011;21913;52.456;13.634;2022-11-15T03:58:30;2.88;;;2.30;;
25155;SDS011;21913;52.456;13.634;2022-11-15T04:03:50;2.90;;;2.40;;
25155;SDS011;21913;52.456;13.634;2022-11-15T04:09:10;3.63;;;2.63;;
25155;SDS011;21913;52.456;13.634;2022-11-15T04:14:30;2.70;;;2.30;;
25155;SDS011;21913;52.456;13.634;2022-11-15T04:19:50;3.97;;;2.85;;
25155;SDS011;21913;52.456;13.634;2022-11-15T04:25:10;3.97;;;2.90;;
25155;SDS011;21913;52.456;13.634;2022-11-15T04:30:30;3.72;;;2.67;;
25155;SDS011;21913;52.456;13.634;2022-11-15T04:35:51;2.83;;;2.50;;
25155;SDS011;21913;52.456;13.634;2022-11-15T04:41:11;4.43;;;2.50;;
25155;SDS011;21913;52.456;13.634;2022-11-15T04:46:31;3.53;;;2.60;;
25155;SDS011;21913;52.456;13.634;2022-11-15T04:51:52;3.25;;;2.58;;
25155;SDS011;21913;52.456;13.634;2022-11-15T05:02:32;3.42;;;2.58;;
25155;SDS011;21913;52.456;13.634;2022-11-15T05:07:52;3.05;;;2.38;;
25155;SDS011;21913;52.456;13.634;2022-11-15T05:13:12;3.45;;;2.53;;
25155;SDS011;21913;52.456;13.634;2022-11-15T05:18:32;4.32;;;2.35;;
25155;SDS011;21913;52.456;13.634;2022-11-15T05:23:52;3.28;;;2.50;;
25155;SDS011;21913;52.456;13.634;2022-11-15T05:29:12;3.83;;;2.50;;
25155;SDS011;21913;52.456;13.634;2022-11-15T05:34:33;3.75;;;2.47;;
25155;SDS011;21913;52.456;13.634;2022-11-15T05:39:53;2.75;;;2.25;;
25155;SDS011;21913;52.456;13.634;2022-11-15T05:45:12;4.17;;;2.70;;
25155;SDS011;21913;52.456;13.634;2022-11-15T05:50:33;3.33;;;2.35;;
25155;SDS011;21913;52.456;13.634;2022-11-15T05:55:56;3.92;;;2.35;;
25155;SDS011;21913;52.456;13.634;2022-11-15T06:01:16;3.42;;;2.35;;
25155;SDS011;21913;52.456;13.634;2022-11-15T06:06:36;3.95;;;2.53;;
25155;SDS011;21913;52.456;13.634;2022-11-15T06:11:56;4.15;;;2.50;;
25155;SDS011;21913;52.456;13.634;2022-11-15T06:17:16;3.65;;;2.50;;
25155;SDS011;21913;52.456;13.634;2022-11-15T06:22:36;2.75;;;2.15;;
25155;SDS011;21913;52.456;13.634;2022-11-15T06:27:57;3.60;;;2.45;;
25155;SDS011;21913;52.456;13.634;2022-11-15T06:33:17;3.10;;;2.20;;
25155;SDS011;21913;52.456;13.634;2022-11-15T06:38:38;3.45;;;2.30;;
25155;SDS011;21913;52.456;13.634;2022-11-15T06:43:58;3.75;;;2.28;;
25155;SDS011;21913;52.456;13.634;2022-11-15T06:49:17;3.28;;;2.30;;
25155;SDS011;21913;52.456;13.634;2022-11-15T06:54:38;3.20;;;2.28;;
25155;SDS011;21913;52.456;13.634;2022-11-15T06:59:58;3.28;;;2.17;;
25155;SDS011;21913;52.456;13.634;2022-11-15T07:05:18;3.25;;;2.38;;
25155;SDS011;21913;52.456;13.634;2022-11-15T07:10:38;2.55;;;1.90;;
25155;SDS011;21913;52.456;13.634;2022-11-15T07:16:01;3.13;;;2.40;;
25155;SDS011;21913;52.456;13.634;2022-11-15T07:21:22;2.80;;;2.20;;
25155;SDS011;21913;52.456;13.634;2022-11-15T07:26:46;3.05;;;2.30;;
25155;SDS011;21913;52.456;13.634;2022-11-15T07:32:06;4.15;;;2.33;;
25155;SDS011;21913;52.456;13.634;2022-11-15T07:37:26;2.85;;;2.08;;
25155;SDS011;21913;52.456;13.634;2022-11-15T07:42:46;2.55;;;2.20;;
25155;SDS011;21913;52.456;13.634;2022-11-15T07:48:06;2.58;;;2.17;;
25155;SDS011;21913;52.456;13.634;2022-11-15T07:53:26;3.72;;;2.38;;
25155;SDS011;21913;52.456;13.634;2022-11-15T07:58:46;3.97;;;2.25;;
25155;SDS011;21913;52.456;13.634;2022-11-15T08:04:07;3.83;;;2.40;;
25155;SDS011;21913;52.456;13.634;2022-11-15T08:09:27;3.22;;;2.22;;
25155;SDS011;21913;52.456;13.634;2022-11-15T08:14:47;3.38;;;2.17;;
25155;SDS011;21913;52.456;13.634;2022-11-15T08:20:07;2.45;;;1.98;;
25155;SDS011;21913;52.456;13.634;2022-11-15T08:25:29;3.13;;;2.00;;
25155;SDS011;21913;52.456;13.634;2022-11-15T08:30:51;2.25;;;1.90;;
25155;SDS011;21913;52.456;13.634;2022-11-15T08:36:12;2.70;;;2.15;;
25155;SDS011;21913;52.456;13.634;2022-11-15T08:41:34;2.78;;;1.90;;
25155;SDS011;21913;52.456;13.634;2022-11-15T08:46:57;2.58;;;1.90;;
25155;SDS011;21913;52.456;13.634;2022-11-15T08:52:17;3.13;;;2.00;;
25155;SDS011;21913;52.456;13.634;2022-11-15T09:02:57;2.72;;;2.00;;
25155;SDS011;21913;52.456;13.634;2022-11-15T09:08:17;2.50;;;1.98;;
25155;SDS011;21913;52.456;13.634;2022-11-15T09:13:57;2.65;;;1.80;;
25155;SDS011;21913;52.456;13.634;2022-11-15T09:19:17;2.78;;;2.10;;
25155;SDS011;21913;52.456;13.634;2022-11-15T09:29:58;2.60;;;1.73;;
25155;SDS011;21913;52.456;13.634;2022-11-15T09:35:17;2.85;;;2.10;;
25155;SDS011;21913;52.456;13.634;2022-11-15T09:40:37;1.90;;;1.63;;
25155;SDS011;21913;52.456;13.634;2022-11-15T09:46:02;3.03;;;1.83;;
25155;SDS011;21913;52.456;13.634;2022-11-15T09:51:47;2.28;;;1.70;;
25155;SDS011;21913;52.456;13.634;2022-11-15T09:56:50;2.85;;;1.83;;
25155;SDS011;21913;52.456;13.634;2022-11-15T10:01:56;2.70;;;1.80;;
25155;SDS011;21913;52.456;13.634;2022-11-15T10:07:16;2.60;;;1.70;;
25155;SDS011;21913;52.456;13.634;2022-11-15T10:12:25;2.42;;;1.70;;
25155;SDS011;21913;52.456;13.634;2022-11-15T10:22:50;2.37;;;1.73;;
25155;SDS011;21913;52.456;13.634;2022-11-15T10:32:57;3.78;;;1.70;;
25155;SDS011;21913;52.456;13.634;2022-11-15T10:38:06;2.45;;;1.70;;
25155;SDS011;21913;52.456;13.634;2022-11-15T10:53:31;2.30;;;1.80;;
25155;SDS011;21913;52.456;13.634;2022-11-15T10:58:43;2.00;;;1.48;;
25155;SDS011;21913;52.456;13.634;2022-11-15T11:04:03;2.40;;;1.80;;
25155;SDS011;21913;52.456;13.634;2022-11-15T11:09:09;1.70;;;1.40;;
25155;SDS011;21913;52.456;13.634;2022-11-15T11:14:33;3.42;;;1.80;;
25155;SDS011;21913;52.456;13.634;2022-11-15T11:24:56;1.98;;;1.48;;
25155;SDS011;21913;52.456;13.634;2022-11-15T11:57:05;2.10;;;1.58;;
25155;SDS011;21913;52.456;13.634;2022-11-15T12:02:15;1.98;;;1.40;;
25155;SDS011;21913;52.456;13.634;2022-11-15T12:07:38;2.45;;;1.50;;
25155;SDS011;21913;52.456;13.634;2022-11-15T12:13:00;2.08;;;1.40;;
25155;SDS011;21913;52.456;13.634;2022-11-15T12:18:07;2.58;;;1.40;;
25155;SDS011;21913;52.456;13.634;2022-11-15T12:23:20;2.63;;;1.67;;
25155;SDS011;21913;52.456;13.634;2022-11-15T12:28:38;2.40;;;1.48;;
25155;SDS011;21913;52.456;13.634;2022-11-15T12:33:49;4.38;;;1.58;;
25155;SDS011;21913;52.456;13.634;2022-11-15T12:44:03;2.42;;;1.40;;
25155;SDS011;21913;52.456;13.634;2022-11-15T13:04:54;2.40;;;1.38;;
25155;SDS011;21913;52.456;13.634;2022-11-15T13:20:23;2.30;;;1.25;;
25155;SDS011;21913;52.456;13.634;2022-11-15T13:30:54;1.88;;;1.30;;
25155;SDS011;21913;52.456;13.634;2022-11-15T13:36:06;2.85;;;1.50;;
25155;SDS011;21913;52.456;13.634;2022-11-15T13:46:18;2.45;;;1.20;;
25155;SDS011;21913;52.456;13.634;2022-11-15T13:56:31;2.83;;;1.38;;
25155;SDS011;21913;52.456;13.634;2022-11-15T14:01:34;1.98;;;1.40;;
25155;SDS011;21913;52.456;13.634;2022-11-15T14:06:42;1.80;;;1.40;;
25155;SDS011;21913;52.456;13.634;2022-11-15T14:11:53;2.92;;;1.30;;
25155;SDS011;21913;52.456;13.634;2022-11-15T14:16:57;2.13;;;1.30;;
25155;SDS011;21913;52.456;13.634;2022-11-15T14:27:23;2.22;;;1.20;;
25155;SDS011;21913;52.456;13.634;2022-11-15T14:32:27;2.55;;;1.40;;
25155;SDS011;21913;52.456;13.634;2022-11-15T14:37:31;2.28;;;1.27;;
25155;SDS011;21913;52.456;13.634;2022-11-15T14:42:34;1.80;;;1.20;;
25155;SDS011;21913;52.456;13.634;2022-11-15T14:47:36;1.60;;;1.20;;
25155;SDS011;21913;52.456;13.634;2022-11-15T14:52:38;2.58;;;1.48;;
25155;SDS011;21913;52.456;13.634;2022-11-15T14:57:40;1.63;;;1.20;;
25155;SDS011;21913;52.456;13.634;2022-11-15T15:02:42;3.15;;;1.10;;
25155;SDS011;21913;52.456;13.634;2022-11-15T15:07:46;2.03;;;1.25;;
25155;SDS011;21913;52.456;13.634;2022-11-15T15:12:48;2.15;;;1.20;;
25155;SDS011;21913;52.456;13.634;2022-11-15T15:17:50;3.25;;;1.63;;
25155;SDS011;21913;52.456;13.634;2022-11-15T15:22:52;2.40;;;1.27;;
25155;SDS011;21913;52.456;13.634;2022-11-15T15:27:53;2.03;;;1.27;;
25155;SDS011;21913;52.456;13.634;2022-11-15T15:32:56;1.75;;;1.10;;
25155;SDS011;21913;52.456;13.634;2022-11-15T15:37:57;2.47;;;1.15;;
25155;SDS011;21913;52.456;13.634;2022-11-15T15:42:59;2.55;;;1.40;;
25155;SDS011;21913;52.456;13.634;2022-11-15T15:48:01;2.33;;;1.13;;
25155;SDS011;21913;52.456;13.634;2022-11-15T15:53:03;2.58;;;1.30;;
25155;SDS011;21913;52.456;13.634;2022-11-15T15:58:05;3.05;;;1.42;;
25155;SDS011;21913;52.456;13.634;2022-11-15T16:03:07;1.92;;;1.20;;
25155;SDS011;21913;52.456;13.634;2022-11-15T16:08:27;4.13;;;1.27;;
25155;SDS011;21913;52.456;13.634;2022-11-15T16:13:32;2.25;;;1.15;;
25155;SDS011;21913;52.456;13.634;2022-11-15T16:18:33;1.65;;;1.20;;
25155;SDS011;21913;52.456;13.634;2022-11-15T16:23:35;2.28;;;1.17;;
25155;SDS011;21913;52.456;13.634;2022-11-15T16:28:37;1.98;;;1.13;;
25155;SDS011;21913;52.456;13.634;2022-11-15T16:33:39;1.50;;;0.95;;
25155;SDS011;21913;52.456;13.634;2022-11-15T16:38:40;1.92;;;1.20;;
25155;SDS011;21913;52.456;13.634;2022-11-15T16:43:44;2.45;;;1.20;;
25155;SDS011;21913;52.456;13.634;2022-11-15T16:48:47;2.35;;;1.48;;
25155;SDS011;21913;52.456;13.634;2022-11-15T16:53:49;1.80;;;1.15;;
25155;SDS011;21913;52.456;13.634;2022-11-15T16:58:51;1.88;;;1.10;;
25155;SDS011;21913;52.456;13.634;2022-11-15T17:03:54;2.88;;;1.20;;
25155;SDS011;21913;52.456;13.634;2022-11-15T17:08:56;1.40;;;1.08;;
25155;SDS011;21913;52.456;13.634;2022-11-15T17:13:58;1.60;;;1.10;;
25155;SDS011;21913;52.456;13.634;2022-11-15T17:19:00;1.92;;;1.20;;
25155;SDS011;21913;52.456;13.634;2022-11-15T17:24:01;1.40;;;1.17;;
25155;SDS011;21913;52.456;13.634;2022-11-15T17:29:03;2.30;;;1.25;;
25155;SDS011;21913;52.456;13.634;2022-11-15T17:34:06;2.90;;;1.30;;
25155;SDS011;21913;52.456;13.634;2022-11-15T17:39:07;2.20;;;1.15;;
25155;SDS011;21913;52.456;13.634;2022-11-15T17:44:09;2.28;;;1.30;;
25155;SDS011;21913;52.456;13.634;2022-11-15T17:49:11;1.90;;;1.20;;
25155;SDS011;21913;52.456;13.634;2022-11-15T17:54:12;2.42;;;1.27;;
25155;SDS011;21913;52.456;13.634;2022-11-15T17:59:14;1.67;;;1.20;;
25155;SDS011;21913;52.456;13.634;2022-11-15T18:04:17;1.25;;;0.90;;
25155;SDS011;21913;52.456;13.634;2022-11-15T18:09:19;2.17;;;1.30;;
25155;SDS011;21913;52.456;13.634;2022-11-15T18:14:20;1.60;;;1.15;;
25155;SDS011;21913;52.456;13.634;2022-11-15T18:19:22;1.70;;;1.20;;
25155;SDS011;21913;52.456;13.634;2022-11-15T18:24:25;1.92;;;1.20;;
25155;SDS011;21913;52.456;13.634;2022-11-15T18:29:31;1.40;;;1.10;;
25155;SDS011;21913;52.456;13.634;2022-11-15T18:34:32;1.58;;;1.00;;
25155;SDS011;21913;52.456;13.634;2022-11-15T18:39:34;1.60;;;1.00;;
25155;SDS011;21913;52.456;13.634;2022-11-15T18:44:36;1.27;;;1.00;;
25155;SDS011;21913;52.456;13.634;2022-11-15T18:49:37;1.95;;;1.27;;
25155;SDS011;21913;52.456;13.634;2022-11-15T18:54:39;1.13;;;1.00;;
25155;SDS011;21913;52.456;13.634;2022-11-15T18:59:40;1.63;;;1.13;;
25155;SDS011;21913;52.456;13.634;2022-11-15T19:04:42;2.03;;;1.20;;
25155;SDS011;21913;52.456;13.634;2022-11-15T19:09:44;1.52;;;1.00;;
25155;SDS011;21913;52.456;13.634;2022-11-15T19:14:45;2.13;;;1.15;;
25155;SDS011;21913;52.456;13.634;2022-11-15T19:19:47;2.22;;;1.30;;
25155;SDS011;21913;52.456;13.634;2022-11-15T19:24:49;1.38;;;0.98;;
25155;SDS011;21913;52.456;13.634;2022-11-15T19:29:50;1.48;;;1.13;;
25155;SDS011;21913;52.456;13.634;2022-11-15T19:34:52;1.50;;;1.10;;
25155;SDS011;21913;52.456;13.634;2022-11-15T19:39:53;2.40;;;1.60;;
25155;SDS011;21913;52.456;13.634;2022-11-15T19:44:55;5.03;;;2.28;;
25155;SDS011;21913;52.456;13.634;2022-11-15T19:49:57;4.13;;;2.03;;
25155;SDS011;21913;52.456;13.634;2022-11-15T19:54:58;3.13;;;2.05;;
25155;SDS011;21913;52.456;13.634;2022-11-15T20:00:00;3.65;;;1.95;;
25155;SDS011;21913;52.456;13.634;2022-11-15T20:05:04;4.30;;;1.88;;
25155;SDS011;21913;52.456;13.634;2022-11-15T20:10:06;3.45;;;1.70;;
25155;SDS011;21913;52.456;13.634;2022-11-15T20:15:08;4.88;;;1.90;;
25155;SDS011;21913;52.456;13.634;2022-11-15T20:20:10;3.53;;;1.98;;
25155;SDS011;21913;52.456;13.634;2022-11-15T20:25:12;5.50;;;2.10;;
25155;SDS011;21913;52.456;13.634;2022-11-15T20:30:15;3.25;;;1.90;;
25155;SDS011;21913;52.456;13.634;2022-11-15T20:35:17;3.88;;;1.80;;
25155;SDS011;21913;52.456;13.634;2022-11-15T20:40:18;2.97;;;1.58;;
25155;SDS011;21913;52.456;13.634;2022-11-15T20:45:20;3.28;;;1.67;;
25155;SDS011;21913;52.456;13.634;2022-11-15T20:50:25;2.75;;;1.63;;
25155;SDS011;21913;52.456;13.634;2022-11-15T20:55:43;3.27;;;1.63;;
25155;SDS011;21913;52.456;13.634;2022-11-15T21:00:46;3.38;;;1.90;;
25155;SDS011;21913;52.456;13.634;2022-11-15T21:05:48;4.18;;;1.70;;
25155;SDS011;21913;52.456;13.634;2022-11-15T21:10:50;2.95;;;1.67;;
25155;SDS011;21913;52.456;13.634;2022-11-15T21:15:56;2.60;;;1.70;;
25155;SDS011;21913;52.456;13.634;2022-11-15T21:21:01;2.92;;;1.65;;
25155;SDS011;21913;52.456;13.634;2022-11-15T21:26:06;2.88;;;1.50;;
25155;SDS011;21913;52.456;13.634;2022-11-15T21:31:08;4.78;;;1.60;;
25155;SDS011;21913;52.456;13.634;2022-11-15T21:36:09;2.13;;;1.48;;
25155;SDS011;21913;52.456;13.634;2022-11-15T21:41:11;2.75;;;1.60;;
25155;SDS011;21913;52.456;13.634;2022-11-15T21:46:13;3.83;;;1.83;;
25155;SDS011;21913;52.456;13.634;2022-11-15T21:51:14;3.42;;;1.60;;
25155;SDS011;21913;52.456;13.634;2022-11-15T21:56:16;3.40;;;1.50;;
25155;SDS011;21913;52.456;13.634;2022-11-15T22:01:18;2.50;;;1.50;;
25155;SDS011;21913;52.456;13.634;2022-11-15T22:06:19;1.77;;;1.38;;
25155;SDS011;21913;52.456;13.634;2022-11-15T22:11:21;1.83;;;1.42;;
25155;SDS011;21913;52.456;13.634;2022-11-15T22:16:23;3.60;;;1.45;;
25155;SDS011;21913;52.456;13.634;2022-11-15T22:21:24;2.50;;;1.80;;
25155;SDS011;21913;52.456;13.634;2022-11-15T22:26:26;2.38;;;1.58;;
25155;SDS011;21913;52.456;13.634;2022-11-15T22:31:28;1.95;;;1.30;;
25155;SDS011;21913;52.456;13.634;2022-11-15T22:36:29;2.58;;;1.45;;
25155;SDS011;21913;52.456;13.634;2022-11-15T22:41:39;3.30;;;1.60;;
25155;SDS011;21913;52.456;13.634;2022-11-15T22:46:40;2.10;;;1.40;;
25155;SDS011;21913;52.456;13.634;2022-11-15T22:51:42;2.22;;;1.60;;
25155;SDS011;21913;52.456;13.634;2022-11-15T22:56:44;2.60;;;1.52;;
25155;SDS011;21913;52.456;13.634;2022-11-15T23:01:45;2.08;;;1.27;;
25155;SDS011;21913;52.456;13.634;2022-11-15T23:06:47;1.77;;;1.30;;
25155;SDS011;21913;52.456;13.634;2022-11-15T23:11:49;3.55;;;1.30;;
25155;SDS011;21913;52.456;13.634;2022-11-15T23:16:51;2.22;;;1.33;;
25155;SDS011;21913;52.456;13.634;2022-11-15T23:21:52;2.00;;;1.30;;
25155;SDS011;21913;52.456;13.634;2022-11-15T23:26:55;2.00;;;1.30;;
25155;SDS011;21913;52.456;13.634;2022-11-15T23:31:58;1.80;;;1.40;;
25155;SDS011;21913;52.456;13.634;2022-11-15T23:37:02;2.10;;;1.25;;
25155;SDS011;21913;52.456;13.634;2022-11-15T23:42:05;1.70;;;1.30;;
25155;SDS011;21913;52.456;13.634;2022-11-15T23:47:09;2.13;;;1.38;;
25155;SDS011;21913;52.456;13.634;2022-11-15T23:52:11;2.15;;;1.33;;
25155;SDS011;21913;52.456;13.634;2022-11-15T23:57:12;2.13;;;1.30;;
